Strona główna
METAR-TAF:

METAR-TAF

Lotnisko :

South Jersey Regional Airport

Mount Holly, New Jersey, Stany Zjednoczone

Szerokość geograficzna: 39-56-26N, Długość geograficzna: 074-50-28W, wysokość: 16 m

Aktualna obserwacja pogody

Raport powstał 10 minut temu, godzina 08:54 UTC
Cisza
Temperatura 19°C
Wilgotność 100%
Ciśnienie 1019 hPa
Widzialność: 16.1 km
Zachmurzenie całkowite na wysokości 3700 ft

METAR: KVAY 200854Z AUTO 00000KT 10SM OVC037 19/19 A3009 RMK AO2 SLP190 T01940189 53007 $

czas: 05:04 (09:04 UTC)


TAF: brakujący

Obserwacja i prognoza pogody dla ponad 4000 lotnisk (raport METAR i TAF).

Dostępne stacje oznaczono żółtymi i czerwonymi punktami na mapie.

Najedź kursorem aby zobaczyć nazwę stacji.

Kliknij aby zobaczyć obserwacje i prognozy pogody.

Aby zmienić mapę: kliknij na zielony przycisk z czarnym krzyżykiem, aby powiększyć; na zielony przycisk z myślnikiem, aby pomniejszyć; na zielone strzałki, aby przejść do map sąsiednich.


METAR-TAF: